Terminal Aerodrome Forecast
Issued by NWS

Home | Current Version | Previous Version | Text Only | Print | Product List | Glossary On
Versions: 1 2 3 4 5 6 7 8 9 10 11 12
997
FTUS42 TJSJ 241725
TAFKPK
TAF
TKPK 241725Z 2418/2518 10014KT P6SM FEW022
     FM242000 07008KT P6SM FEW020
     FM251300 06003KT P6SM SCT025
      AMD NOT SKED 2502/2511=

USA.gov is the U.S. government's official web portal to all federal, state and local government web resources and services.